createdAt,value
2022-12-14T00:17:20.847Z,78.1
2022-12-14T00:30:11.246Z,78.6
2022-12-14T00:36:22.167Z,78.3
2022-12-14T00:42:51.765Z,78.8
2022-12-14T00:55:39.284Z,79.4
2022-12-14T01:01:50.403Z,79.1
2022-12-14T01:07:53.689Z,79.1
2022-12-14T01:13:59.077Z,79
2022-12-14T01:20:04.046Z,79.7
2022-12-14T01:32:42.129Z,79.9
2022-12-14T01:39:20.567Z,80.2
2022-12-14T01:46:03.720Z,80.3
2022-12-14T01:52:35.312Z,80.1
2022-12-14T01:58:53.047Z,80
2022-12-14T02:05:35.565Z,79.7
2022-12-14T02:25:36.638Z,79.3
2022-12-14T02:31:55.545Z,79.5
2022-12-14T02:38:06.560Z,79.6
2022-12-14T02:44:26.362Z,79.8
2022-12-14T02:50:55.979Z,79.7
2022-12-14T02:57:13.201Z,79.6
2022-12-14T03:03:30.187Z,80.1
2022-12-14T03:09:41.770Z,80.2
2022-12-14T03:15:54.849Z,80.5
2022-12-14T03:21:55.488Z,80.5
2022-12-14T03:28:29.580Z,80.5
2022-12-14T03:34:27.983Z,80.4
2022-12-14T03:40:38.612Z,80.6
2022-12-14T03:46:43.361Z,80.2
2022-12-14T03:52:37.310Z,80.4
2022-12-14T03:58:28.910Z,80.3
2022-12-14T04:10:30.886Z,80
2022-12-14T04:16:28.094Z,80.4
2022-12-14T04:22:34.415Z,80
2022-12-14T04:28:45.023Z,80.3
2022-12-14T04:35:03.487Z,80.5
2022-12-14T04:41:07.681Z,81
2022-12-14T04:47:15.338Z,81
2022-12-14T04:53:13.178Z,81.5
2022-12-14T04:59:17.913Z,81.7
2022-12-14T05:05:37.242Z,82
2022-12-14T05:12:08.152Z,82.2
2022-12-14T05:31:38.121Z,81.3
2022-12-14T05:44:20.655Z,81.7
2022-12-14T05:56:59.100Z,81.9
2022-12-14T06:02:58.649Z,81.4
2022-12-14T06:09:08.088Z,81.5
2022-12-14T06:15:39.156Z,81.3
2022-12-14T06:21:41.605Z,81.7
2022-12-14T06:27:38.752Z,81.5
2022-12-14T06:33:33.775Z,81.5
2022-12-14T06:45:57.039Z,81.7
2022-12-14T06:53:32.537Z,81.1
2022-12-14T06:59:46.416Z,79.2
2022-12-14T07:05:50.421Z,79.6
2022-12-14T07:11:42.892Z,79.6
2022-12-14T07:17:47.677Z,81.1
2022-12-14T07:23:40.409Z,81.4
2022-12-14T07:29:42.401Z,81.7
2022-12-14T07:35:34.549Z,81.7
2022-12-14T07:41:25.792Z,81
2022-12-14T07:47:22.431Z,80.7
2022-12-14T07:53:31.729Z,81.6
2022-12-14T07:59:27.187Z,81.5
2022-12-14T08:05:19.397Z,81.7
2022-12-14T08:11:16.379Z,82.9
2022-12-14T08:17:08.225Z,83.9
2022-12-14T08:23:00.486Z,85.2
2022-12-14T08:28:52.908Z,85.6
2022-12-14T08:34:43.106Z,86.8
2022-12-14T08:40:37.626Z,88.3
2022-12-14T08:46:28.628Z,89.6
2022-12-14T08:52:20.269Z,90
2022-12-14T08:58:11.220Z,91.1
2022-12-14T09:04:04.100Z,92.5
2022-12-14T09:09:56.968Z,93.4
2022-12-14T09:15:48.703Z,94.5
2022-12-14T09:21:40.497Z,95.9
2022-12-14T09:27:30.939Z,96.6
2022-12-14T09:33:23.832Z,95.1
2022-12-14T09:39:17.652Z,96.4
2022-12-14T09:45:12.317Z,97
2022-12-14T09:51:09.484Z,98.3
2022-12-14T09:57:04.106Z,98.7
2022-12-14T10:03:09.210Z,99
2022-12-14T10:09:04.349Z,99.6
2022-12-14T10:14:58.240Z,99.9
2022-12-14T11:13:08.946Z,98
2022-12-14T11:19:26.502Z,98.1
2022-12-14T11:32:01.633Z,97.5
2022-12-14T11:38:01.941Z,97.8
2022-12-14T12:11:06.651Z,97.5
2022-12-14T12:17:41.157Z,98.3
2022-12-14T12:24:01.530Z,98.6
2022-12-14T12:30:03.682Z,98.4
2022-12-14T12:36:23.704Z,98.2
2022-12-14T12:42:26.371Z,97.8
2022-12-14T12:48:34.189Z,98.1
2022-12-14T12:54:43.920Z,96.7
2022-12-14T13:00:45.329Z,96.5
2022-12-14T13:07:00.146Z,96.7
2022-12-14T13:13:34.705Z,96.4
2022-12-14T13:27:17.049Z,95.8
2022-12-14T13:40:20.206Z,95.4
2022-12-14T13:46:24.530Z,96.3
2022-12-14T13:52:27.638Z,95.7
2022-12-14T13:58:36.995Z,95.2
2022-12-14T14:11:42.584Z,95.8
2022-12-14T14:17:56.469Z,94.6
2022-12-14T14:31:21.001Z,94.3
2022-12-14T14:44:41.044Z,95.3
2022-12-14T15:05:17.813Z,95.6
2022-12-14T16:35:12.973Z,99.1
2022-12-14T17:16:56.266Z,95.1
2022-12-14T17:37:08.295Z,95
2022-12-14T20:21:54.146Z,89.6
2022-12-14T20:34:55.711Z,88.8
2022-12-14T22:12:13.847Z,87.5
2022-12-14T22:18:18.090Z,87.8
2022-12-14T22:24:31.977Z,88.5
2022-12-14T22:31:00.307Z,87.6
2022-12-14T22:37:34.274Z,87.9
2022-12-14T22:43:46.510Z,87
2022-12-14T22:50:18.700Z,86.6
2022-12-14T22:56:36.858Z,86.3
2022-12-14T23:02:54.705Z,86.5
2022-12-14T23:09:14.365Z,87.1
2022-12-14T23:21:20.341Z,88.2
2022-12-14T23:34:43.701Z,86.5
2022-12-14T23:46:55.555Z,87.1
2022-12-14T23:52:52.241Z,86.9
2022-12-14T23:58:49.764Z,87.2
